sensor_id;sensor_type;location;lat;lon;timestamp;pressure;altitude;pressure_sealevel;temperature;humidity
54306;BME280;66145;45.188;5.712;2023-04-08T00:00:15;99327.16;;;20.43;40.47
54306;BME280;66145;45.188;5.712;2023-04-08T00:02:40;99316.34;;;20.38;40.60
54306;BME280;66145;45.188;5.712;2023-04-08T00:05:06;99294.53;;;20.24;40.45
54306;BME280;66145;45.188;5.712;2023-04-08T00:07:31;99292.59;;;20.25;40.43
54306;BME280;66145;45.188;5.712;2023-04-08T00:09:57;99345.59;;;20.51;40.47
54306;BME280;66145;45.188;5.712;2023-04-08T00:12:22;99330.06;;;20.38;40.49
54306;BME280;66145;45.188;5.712;2023-04-08T00:14:47;99320.88;;;20.43;40.45
54306;BME280;66145;45.188;5.712;2023-04-08T00:17:13;99339.63;;;20.58;40.59
54306;BME280;66145;45.188;5.712;2023-04-08T00:19:38;99337.00;;;20.71;40.37
54306;BME280;66145;45.188;5.712;2023-04-08T00:22:04;99337.81;;;20.80;40.26
54306;BME280;66145;45.188;5.712;2023-04-08T00:24:29;99327.50;;;20.77;40.28
54306;BME280;66145;45.188;5.712;2023-04-08T00:26:54;99354.47;;;20.92;40.29
54306;BME280;66145;45.188;5.712;2023-04-08T00:29:20;99345.75;;;20.90;40.15
54306;BME280;66145;45.188;5.712;2023-04-08T00:31:46;99335.25;;;20.84;40.40
54306;BME280;66145;45.188;5.712;2023-04-08T00:34:11;99343.16;;;20.85;40.36
54306;BME280;66145;45.188;5.712;2023-04-08T00:36:37;99305.31;;;20.64;40.36
54306;BME280;66145;45.188;5.712;2023-04-08T00:39:04;99338.66;;;20.80;40.48
54306;BME280;66145;45.188;5.712;2023-04-08T00:41:33;99314.06;;;20.58;40.52
54306;BME280;66145;45.188;5.712;2023-04-08T00:43:59;99330.88;;;20.74;40.46
54306;BME280;66145;45.188;5.712;2023-04-08T00:46:25;99340.75;;;20.84;40.58
54306;BME280;66145;45.188;5.712;2023-04-08T00:48:51;99332.00;;;20.81;40.42
54306;BME280;66145;45.188;5.712;2023-04-08T00:51:17;99323.59;;;20.78;40.42
54306;BME280;66145;45.188;5.712;2023-04-08T00:53:43;99318.91;;;20.78;40.42
54306;BME280;66145;45.188;5.712;2023-04-08T00:56:08;99347.34;;;21.00;40.10
54306;BME280;66145;45.188;5.712;2023-04-08T00:58:33;99344.09;;;20.98;40.24
54306;BME280;66145;45.188;5.712;2023-04-08T01:01:03;99314.88;;;20.76;40.30
54306;BME280;66145;45.188;5.712;2023-04-08T01:06:34;99323.41;;;20.74;40.25
54306;BME280;66145;45.188;5.712;2023-04-08T01:09:04;99291.59;;;20.56;40.45
54306;BME280;66145;45.188;5.712;2023-04-08T01:11:31;99318.56;;;20.71;40.39
54306;BME280;66145;45.188;5.712;2023-04-08T01:14:00;99299.19;;;20.59;40.23
54306;BME280;66145;45.188;5.712;2023-04-08T01:16:29;99355.59;;;20.91;40.30
54306;BME280;66145;45.188;5.712;2023-04-08T01:18:55;99351.06;;;20.95;39.96
54306;BME280;66145;45.188;5.712;2023-04-08T01:21:22;99301.78;;;20.64;39.95
54306;BME280;66145;45.188;5.712;2023-04-08T01:23:56;99358.78;;;21.02;40.25
54306;BME280;66145;45.188;5.712;2023-04-08T01:26:24;99350.25;;;20.95;40.00
54306;BME280;66145;45.188;5.712;2023-04-08T01:28:52;99333.94;;;20.90;40.10
54306;BME280;66145;45.188;5.712;2023-04-08T01:31:21;99360.59;;;21.07;39.97
54306;BME280;66145;45.188;5.712;2023-04-08T01:33:49;99339.91;;;20.92;40.01
54306;BME280;66145;45.188;5.712;2023-04-08T01:36:16;99368.50;;;21.08;40.07
54306;BME280;66145;45.188;5.712;2023-04-08T01:38:43;99338.94;;;20.88;40.03
54306;BME280;66145;45.188;5.712;2023-04-08T01:41:10;99315.03;;;20.71;40.19
54306;BME280;66145;45.188;5.712;2023-04-08T01:43:38;99338.00;;;20.84;40.09
54306;BME280;66145;45.188;5.712;2023-04-08T01:46:05;99361.88;;;21.01;40.00
54306;BME280;66145;45.188;5.712;2023-04-08T01:48:33;99342.03;;;20.86;39.89
54306;BME280;66145;45.188;5.712;2023-04-08T01:51:00;99359.63;;;21.03;39.96
54306;BME280;66145;45.188;5.712;2023-04-08T01:53:26;99356.38;;;21.09;39.96
54306;BME280;66145;45.188;5.712;2023-04-08T01:55:56;99360.72;;;21.10;40.00
54306;BME280;66145;45.188;5.712;2023-04-08T01:58:24;99358.31;;;21.18;39.88
54306;BME280;66145;45.188;5.712;2023-04-08T02:00:53;99359.09;;;21.18;39.80
54306;BME280;66145;45.188;5.712;2023-04-08T02:03:22;99338.72;;;21.10;39.88
54306;BME280;66145;45.188;5.712;2023-04-08T02:05:49;99361.69;;;21.15;39.80
54306;BME280;66145;45.188;5.712;2023-04-08T02:08:14;99358.78;;;21.11;39.97
54306;BME280;66145;45.188;5.712;2023-04-08T02:10:39;99340.06;;;20.95;40.10
54306;BME280;66145;45.188;5.712;2023-04-08T02:13:05;99318.56;;;20.80;40.13
54306;BME280;66145;45.188;5.712;2023-04-08T02:15:37;99331.19;;;20.90;40.02
54306;BME280;66145;45.188;5.712;2023-04-08T02:18:15;99348.75;;;21.06;39.81
54306;BME280;66145;45.188;5.712;2023-04-08T02:20:47;99333.91;;;20.99;40.08
54306;BME280;66145;45.188;5.712;2023-04-08T02:23:23;99366.06;;;21.16;39.93
54306;BME280;66145;45.188;5.712;2023-04-08T02:25:48;99359.56;;;21.20;39.94
54306;BME280;66145;45.188;5.712;2023-04-08T02:28:17;99335.53;;;21.00;39.87
54306;BME280;66145;45.188;5.712;2023-04-08T02:30:48;99342.13;;;21.07;39.67
54306;BME280;66145;45.188;5.712;2023-04-08T02:33:17;99316.28;;;20.91;39.95
54306;BME280;66145;45.188;5.712;2023-04-08T02:35:44;99360.41;;;21.12;39.81
54306;BME280;66145;45.188;5.712;2023-04-08T02:38:10;99344.09;;;20.98;39.77
54306;BME280;66145;45.188;5.712;2023-04-08T02:40:35;99367.84;;;21.11;39.76
54306;BME280;66145;45.188;5.712;2023-04-08T02:43:01;99369.63;;;21.07;39.83
54306;BME280;66145;45.188;5.712;2023-04-08T02:45:30;99374.81;;;21.09;39.75
54306;BME280;66145;45.188;5.712;2023-04-08T02:47:56;99356.53;;;21.04;39.91
54306;BME280;66145;45.188;5.712;2023-04-08T02:50:21;99338.13;;;20.96;39.80
54306;BME280;66145;45.188;5.712;2023-04-08T02:52:47;99370.91;;;21.10;39.69
54306;BME280;66145;45.188;5.712;2023-04-08T02:55:12;99368.34;;;21.14;39.89
54306;BME280;66145;45.188;5.712;2023-04-08T02:57:39;99352.50;;;21.02;39.93
54306;BME280;66145;45.188;5.712;2023-04-08T03:00:06;99375.94;;;21.17;39.92
54306;BME280;66145;45.188;5.712;2023-04-08T03:02:32;99325.03;;;20.84;39.84
54306;BME280;66145;45.188;5.712;2023-04-08T03:04:58;99354.63;;;20.96;39.92
54306;BME280;66145;45.188;5.712;2023-04-08T03:07:23;99353.66;;;20.92;40.02
54306;BME280;66145;45.188;5.712;2023-04-08T03:09:49;99386.97;;;21.08;39.75
54306;BME280;66145;45.188;5.712;2023-04-08T03:12:15;99359.63;;;20.94;39.91
54306;BME280;66145;45.188;5.712;2023-04-08T03:14:40;99371.09;;;21.05;39.79
54306;BME280;66145;45.188;5.712;2023-04-08T03:17:05;99373.00;;;21.13;39.91
54306;BME280;66145;45.188;5.712;2023-04-08T03:19:31;99371.88;;;21.14;39.74
54306;BME280;66145;45.188;5.712;2023-04-08T03:21:56;99378.84;;;21.20;39.83
54306;BME280;66145;45.188;5.712;2023-04-08T03:24:21;99384.47;;;21.24;39.69
54306;BME280;66145;45.188;5.712;2023-04-08T03:26:47;99390.94;;;21.28;39.65
54306;BME280;66145;45.188;5.712;2023-04-08T03:29:12;99357.00;;;21.06;39.48
54306;BME280;66145;45.188;5.712;2023-04-08T03:31:37;99373.34;;;21.11;39.53
54306;BME280;66145;45.188;5.712;2023-04-08T03:34:02;99370.75;;;21.06;39.70
54306;BME280;66145;45.188;5.712;2023-04-08T03:36:28;99366.75;;;21.04;39.73
54306;BME280;66145;45.188;5.712;2023-04-08T03:38:53;99368.84;;;20.98;39.60
54306;BME280;66145;45.188;5.712;2023-04-08T03:41:19;99393.09;;;21.14;39.62
54306;BME280;66145;45.188;5.712;2023-04-08T03:43:45;99387.75;;;21.08;39.84
54306;BME280;66145;45.188;5.712;2023-04-08T03:46:10;99322.94;;;20.72;39.74
54306;BME280;66145;45.188;5.712;2023-04-08T03:48:36;99371.41;;;21.03;39.75
54306;BME280;66145;45.188;5.712;2023-04-08T03:51:01;99370.47;;;21.08;39.68
54306;BME280;66145;45.188;5.712;2023-04-08T03:53:26;99372.72;;;21.06;39.74
54306;BME280;66145;45.188;5.712;2023-04-08T03:55:56;99364.47;;;21.06;39.68
54306;BME280;66145;45.188;5.712;2023-04-08T03:58:21;99395.66;;;21.19;39.54
54306;BME280;66145;45.188;5.712;2023-04-08T04:00:47;99382.56;;;21.16;39.67
54306;BME280;66145;45.188;5.712;2023-04-08T04:03:12;99389.34;;;21.18;39.33
54306;BME280;66145;45.188;5.712;2023-04-08T04:05:38;99395.00;;;21.13;39.56
54306;BME280;66145;45.188;5.712;2023-04-08T04:08:04;99390.50;;;21.08;39.62
54306;BME280;66145;45.188;5.712;2023-04-08T04:10:30;99387.59;;;21.05;39.71
54306;BME280;66145;45.188;5.712;2023-04-08T04:12:55;99400.38;;;21.09;39.92
54306;BME280;66145;45.188;5.712;2023-04-08T04:15:21;99398.09;;;21.11;39.71
54306;BME280;66145;45.188;5.712;2023-04-08T04:17:47;99401.97;;;21.10;39.65
54306;BME280;66145;45.188;5.712;2023-04-08T04:20:14;99393.09;;;21.14;39.47
54306;BME280;66145;45.188;5.712;2023-04-08T04:22:39;99369.50;;;20.95;39.61
54306;BME280;66145;45.188;5.712;2023-04-08T04:25:05;99344.28;;;20.84;39.43
54306;BME280;66145;45.188;5.712;2023-04-08T04:27:31;99390.00;;;21.15;39.73
54306;BME280;66145;45.188;5.712;2023-04-08T04:29:56;99401.63;;;21.21;39.54
54306;BME280;66145;45.188;5.712;2023-04-08T04:32:21;99382.91;;;21.05;39.62
54306;BME280;66145;45.188;5.712;2023-04-08T04:34:47;99420.56;;;21.22;39.57
54306;BME280;66145;45.188;5.712;2023-04-08T04:37:12;99377.41;;;20.96;39.50
54306;BME280;66145;45.188;5.712;2023-04-08T04:39:37;99391.00;;;21.02;39.67
54306;BME280;66145;45.188;5.712;2023-04-08T04:42:03;99410.56;;;21.09;40.07
54306;BME280;66145;45.188;5.712;2023-04-08T04:44:28;99408.00;;;20.95;40.41
54306;BME280;66145;45.188;5.712;2023-04-08T04:46:54;99392.94;;;20.75;39.95
54306;BME280;66145;45.188;5.712;2023-04-08T04:49:20;99413.66;;;20.99;39.35
54306;BME280;66145;45.188;5.712;2023-04-08T04:51:45;99399.09;;;20.98;39.42
54306;BME280;66145;45.188;5.712;2023-04-08T04:54:11;99428.19;;;21.17;39.51
54306;BME280;66145;45.188;5.712;2023-04-08T04:56:36;99376.00;;;20.81;39.61
54306;BME280;66145;45.188;5.712;2023-04-08T04:59:02;99421.22;;;21.19;39.52
54306;BME280;66145;45.188;5.712;2023-04-08T05:01:29;99390.84;;;20.98;39.57
54306;BME280;66145;45.188;5.712;2023-04-08T05:03:55;99415.56;;;21.16;39.64
54306;BME280;66145;45.188;5.712;2023-04-08T05:06:22;99370.66;;;20.85;39.96
54306;BME280;66145;45.188;5.712;2023-04-08T05:08:47;99427.22;;;21.12;39.87
54306;BME280;66145;45.188;5.712;2023-04-08T05:11:12;99397.00;;;20.95;39.63
54306;BME280;66145;45.188;5.712;2023-04-08T05:13:38;99408.47;;;20.97;39.77
54306;BME280;66145;45.188;5.712;2023-04-08T05:16:03;99390.03;;;20.89;39.67
54306;BME280;66145;45.188;5.712;2023-04-08T05:18:29;99433.69;;;21.17;39.75
54306;BME280;66145;45.188;5.712;2023-04-08T05:20:54;99409.47;;;21.01;39.75
54306;BME280;66145;45.188;5.712;2023-04-08T05:23:19;99427.06;;;21.09;39.63
54306;BME280;66145;45.188;5.712;2023-04-08T05:25:45;99448.88;;;21.23;39.71
54306;BME280;66145;45.188;5.712;2023-04-08T05:28:10;99444.84;;;21.20;39.52
54306;BME280;66145;45.188;5.712;2023-04-08T05:30:36;99423.16;;;21.10;39.58
54306;BME280;66145;45.188;5.712;2023-04-08T05:33:01;99461.19;;;21.25;39.70
54306;BME280;66145;45.188;5.712;2023-04-08T05:35:27;99446.97;;;21.15;39.54
54306;BME280;66145;45.188;5.712;2023-04-08T05:37:53;99461.34;;;21.20;39.50
54306;BME280;66145;45.188;5.712;2023-04-08T05:40:18;99447.78;;;21.06;39.56
54306;BME280;66145;45.188;5.712;2023-04-08T05:42:44;99468.16;;;21.14;39.66
54306;BME280;66145;45.188;5.712;2023-04-08T05:45:10;99463.78;;;21.13;39.83
54306;BME280;66145;45.188;5.712;2023-04-08T05:47:35;99458.75;;;21.15;39.54
54306;BME280;66145;45.188;5.712;2023-04-08T05:50:01;99469.44;;;21.17;39.51
54306;BME280;66145;45.188;5.712;2023-04-08T05:52:26;99477.50;;;21.22;39.89
54306;BME280;66145;45.188;5.712;2023-04-08T05:54:52;99462.97;;;21.12;39.80
54306;BME280;66145;45.188;5.712;2023-04-08T05:57:18;99482.38;;;21.25;39.83
54306;BME280;66145;45.188;5.712;2023-04-08T05:59:43;99478.50;;;21.17;39.89
54306;BME280;66145;45.188;5.712;2023-04-08T06:02:08;99462.00;;;21.08;39.85
54306;BME280;66145;45.188;5.712;2023-04-08T06:04:34;99488.03;;;21.20;39.92
54306;BME280;66145;45.188;5.712;2023-04-08T06:06:59;99467.66;;;21.03;40.15
54306;BME280;66145;45.188;5.712;2023-04-08T06:09:27;99479.97;;;21.15;40.02
54306;BME280;66145;45.188;5.712;2023-04-08T06:11:52;99493.38;;;21.16;40.16
54306;BME280;66145;45.188;5.712;2023-04-08T06:14:18;99493.06;;;21.18;40.13
54306;BME280;66145;45.188;5.712;2023-04-08T06:16:45;99484.34;;;21.16;40.06
54306;BME280;66145;45.188;5.712;2023-04-08T06:19:10;99487.72;;;21.21;40.06
54306;BME280;66145;45.188;5.712;2023-04-08T06:21:36;99500.84;;;21.24;39.94
54306;BME280;66145;45.188;5.712;2023-04-08T06:24:01;99492.59;;;21.24;40.11
54306;BME280;66145;45.188;5.712;2023-04-08T06:26:27;99506.50;;;21.28;40.07
54306;BME280;66145;45.188;5.712;2023-04-08T06:28:52;99472.50;;;21.15;40.11
54306;BME280;66145;45.188;5.712;2023-04-08T06:31:18;99494.00;;;21.31;39.75
54306;BME280;66145;45.188;5.712;2023-04-08T06:33:43;99501.78;;;21.37;40.13
54306;BME280;66145;45.188;5.712;2023-04-08T06:36:09;99490.63;;;21.34;40.17
54306;BME280;66145;45.188;5.712;2023-04-08T06:38:37;99490.97;;;21.23;40.46
54306;BME280;66145;45.188;5.712;2023-04-08T06:41:06;99502.25;;;21.31;40.53
54306;BME280;66145;45.188;5.712;2023-04-08T06:43:32;99475.91;;;21.12;40.44
54306;BME280;66145;45.188;5.712;2023-04-08T06:45:58;99505.34;;;21.29;40.36
54306;BME280;66145;45.188;5.712;2023-04-08T06:48:24;99485.13;;;21.16;40.25
54306;BME280;66145;45.188;5.712;2023-04-08T06:50:58;99512.47;;;21.30;40.36
54306;BME280;66145;45.188;5.712;2023-04-08T06:53:25;99488.22;;;21.15;40.55
54306;BME280;66145;45.188;5.712;2023-04-08T06:55:51;99505.84;;;21.31;40.26
54306;BME280;66145;45.188;5.712;2023-04-08T06:58:16;99498.38;;;21.32;40.35
54306;BME280;66145;45.188;5.712;2023-04-08T07:00:42;99506.97;;;21.39;40.38
54306;BME280;66145;45.188;5.712;2023-04-08T07:03:07;99480.13;;;21.18;40.35
54306;BME280;66145;45.188;5.712;2023-04-08T07:05:36;99417.38;;;20.76;40.44
54306;BME280;66145;45.188;5.712;2023-04-08T07:08:03;99510.22;;;21.32;40.59
54306;BME280;66145;45.188;5.712;2023-04-08T07:10:28;99507.13;;;21.25;40.77
54306;BME280;66145;45.188;5.712;2023-04-08T07:12:53;99463.00;;;20.95;41.01
54306;BME280;66145;45.188;5.712;2023-04-08T07:15:19;99507.47;;;21.23;40.67
54306;BME280;66145;45.188;5.712;2023-04-08T07:17:44;99498.72;;;21.21;40.47
54306;BME280;66145;45.188;5.712;2023-04-08T07:20:11;99522.50;;;21.35;40.71
54306;BME280;66145;45.188;5.712;2023-04-08T07:22:38;99490.63;;;21.16;40.96
54306;BME280;66145;45.188;5.712;2023-04-08T07:25:03;99522.34;;;21.40;40.86
54306;BME280;66145;45.188;5.712;2023-04-08T07:27:29;99510.19;;;21.41;40.61
54306;BME280;66145;45.188;5.712;2023-04-08T07:29:54;99487.38;;;21.32;40.61
54306;BME280;66145;45.188;5.712;2023-04-08T07:32:20;99517.78;;;21.35;41.07
54306;BME280;66145;45.188;5.712;2023-04-08T07:34:46;99533.84;;;21.33;40.87
54306;BME280;66145;45.188;5.712;2023-04-08T07:37:11;99494.66;;;21.10;40.73
54306;BME280;66145;45.188;5.712;2023-04-08T07:39:36;99504.72;;;21.06;40.70
54306;BME280;66145;45.188;5.712;2023-04-08T07:42:02;99533.84;;;21.16;40.89
54306;BME280;66145;45.188;5.712;2023-04-08T07:44:27;99509.88;;;21.07;40.56
54306;BME280;66145;45.188;5.712;2023-04-08T07:46:52;99515.72;;;21.06;40.65
54306;BME280;66145;45.188;5.712;2023-04-08T07:49:18;99504.53;;;21.02;40.25
54306;BME280;66145;45.188;5.712;2023-04-08T07:51:43;99525.91;;;21.14;39.94
54306;BME280;66145;45.188;5.712;2023-04-08T07:54:08;99526.22;;;21.39;39.05
54306;BME280;66145;45.188;5.712;2023-04-08T07:56:41;99495.78;;;21.26;39.01
54306;BME280;66145;45.188;5.712;2023-04-08T07:59:09;99509.53;;;21.62;38.86
54306;BME280;66145;45.188;5.712;2023-04-08T08:01:34;99532.34;;;21.71;39.09
54306;BME280;66145;45.188;5.712;2023-04-08T08:04:00;99523.25;;;21.70;39.32
54306;BME280;66145;45.188;5.712;2023-04-08T08:06:26;99527.47;;;21.77;39.22
54306;BME280;66145;45.188;5.712;2023-04-08T08:08:56;99528.13;;;21.73;39.48
54306;BME280;66145;45.188;5.712;2023-04-08T08:11:21;99504.97;;;21.57;39.67
54306;BME280;66145;45.188;5.712;2023-04-08T08:13:47;99510.47;;;21.57;39.78
54306;BME280;66145;45.188;5.712;2023-04-08T08:16:12;99506.28;;;21.42;39.85
54306;BME280;66145;45.188;5.712;2023-04-08T08:18:39;99508.59;;;21.22;40.21
54306;BME280;66145;45.188;5.712;2023-04-08T08:21:05;99545.47;;;21.39;40.11
54306;BME280;66145;45.188;5.712;2023-04-08T08:23:31;99518.47;;;20.97;40.90
54306;BME280;66145;45.188;5.712;2023-04-08T08:26:07;99514.03;;;20.70;40.95
54306;BME280;66145;45.188;5.712;2023-04-08T08:28:37;99527.16;;;20.73;40.96
54306;BME280;66145;45.188;5.712;2023-04-08T08:31:02;99529.75;;;20.69;41.04
54306;BME280;66145;45.188;5.712;2023-04-08T08:33:30;99527.00;;;20.78;40.12
54306;BME280;66145;45.188;5.712;2023-04-08T08:35:55;99525.09;;;21.05;39.93
54306;BME280;66145;45.188;5.712;2023-04-08T08:38:22;99519.13;;;21.11;39.40
54306;BME280;66145;45.188;5.712;2023-04-08T08:40:55;99539.50;;;21.37;39.57
54306;BME280;66145;45.188;5.712;2023-04-08T08:43:22;99539.16;;;21.47;39.49
54306;BME280;66145;45.188;5.712;2023-04-08T08:45:47;99485.13;;;21.16;39.24
54306;BME280;66145;45.188;5.712;2023-04-08T08:48:13;99545.78;;;21.55;39.54
54306;BME280;66145;45.188;5.712;2023-04-08T08:50:38;99514.88;;;21.40;39.41
54306;BME280;66145;45.188;5.712;2023-04-08T08:53:04;99546.91;;;21.54;39.42
54306;BME280;66145;45.188;5.712;2023-04-08T08:55:31;99521.22;;;21.32;39.46
54306;BME280;66145;45.188;5.712;2023-04-08T08:58:00;99548.38;;;21.42;39.75
54306;BME280;66145;45.188;5.712;2023-04-08T09:00:40;99550.31;;;21.42;39.74
54306;BME280;66145;45.188;5.712;2023-04-08T09:03:23;99506.84;;;21.18;40.04
54306;BME280;66145;45.188;5.712;2023-04-08T09:05:57;99524.47;;;21.17;40.22
54306;BME280;66145;45.188;5.712;2023-04-08T09:08:31;99549.38;;;21.38;40.15
54306;BME280;66145;45.188;5.712;2023-04-08T09:13:37;99512.63;;;21.25;39.94
54306;BME280;66145;45.188;5.712;2023-04-08T09:16:08;99453.28;;;20.89;40.25
54306;BME280;66145;45.188;5.712;2023-04-08T09:18:35;99513.59;;;21.29;40.14
54306;BME280;66145;45.188;5.712;2023-04-08T09:21:05;99538.19;;;21.43;40.07
54306;BME280;66145;45.188;5.712;2023-04-08T09:23:44;99546.44;;;21.43;40.12
54306;BME280;66145;45.188;5.712;2023-04-08T09:26:15;99534.28;;;21.44;40.36
54306;BME280;66145;45.188;5.712;2023-04-08T09:28:42;99532.03;;;21.37;40.26
54306;BME280;66145;45.188;5.712;2023-04-08T09:31:28;99461.72;;;20.84;40.24
54306;BME280;66145;45.188;5.712;2023-04-08T09:33:58;99538.03;;;21.31;40.35
54306;BME280;66145;45.188;5.712;2023-04-08T09:36:25;99503.41;;;21.03;40.54
54306;BME280;66145;45.188;5.712;2023-04-08T09:38:54;99506.16;;;21.03;40.41
54306;BME280;66145;45.188;5.712;2023-04-08T09:41:20;99529.78;;;21.22;40.56
54306;BME280;66145;45.188;5.712;2023-04-08T09:43:49;99520.88;;;21.25;40.30
54306;BME280;66145;45.188;5.712;2023-04-08T09:46:17;99480.28;;;20.95;40.27
54306;BME280;66145;45.188;5.712;2023-04-08T09:51:31;99508.44;;;21.01;40.39
54306;BME280;66145;45.188;5.712;2023-04-08T09:54:01;99510.22;;;20.97;39.89
54306;BME280;66145;45.188;5.712;2023-04-08T09:56:37;99529.78;;;20.95;39.50
54306;BME280;66145;45.188;5.712;2023-04-08T09:59:13;99495.78;;;20.65;40.50
54306;BME280;66145;45.188;5.712;2023-04-08T10:01:45;99476.38;;;20.03;38.43
54306;BME280;66145;45.188;5.712;2023-04-08T10:04:14;99493.81;;;19.99;37.75
54306;BME280;66145;45.188;5.712;2023-04-08T10:06:41;99475.06;;;19.92;38.37
54306;BME280;66145;45.188;5.712;2023-04-08T10:09:07;99510.19;;;20.13;38.71
54306;BME280;66145;45.188;5.712;2023-04-08T10:11:35;99483.16;;;20.06;39.18
54306;BME280;66145;45.188;5.712;2023-04-08T10:14:01;99503.78;;;20.35;39.61
54306;BME280;66145;45.188;5.712;2023-04-08T10:16:27;99468.81;;;20.18;39.33
54306;BME280;66145;45.188;5.712;2023-04-08T10:18:54;99513.34;;;20.46;39.56
54306;BME280;66145;45.188;5.712;2023-04-08T10:21:38;99470.63;;;20.23;39.48
54306;BME280;66145;45.188;5.712;2023-04-08T10:24:08;99467.69;;;20.10;39.80
54306;BME280;66145;45.188;5.712;2023-04-08T10:26:38;99500.84;;;20.31;40.35
54306;BME280;66145;45.188;5.712;2023-04-08T10:31:53;99443.34;;;19.86;40.35
54306;BME280;66145;45.188;5.712;2023-04-08T10:34:20;99496.28;;;20.18;40.40
54306;BME280;66145;45.188;5.712;2023-04-08T10:36:47;99465.09;;;20.05;40.46
54306;BME280;66145;45.188;5.712;2023-04-08T10:39:13;99499.91;;;20.27;40.47
54306;BME280;66145;45.188;5.712;2023-04-08T10:41:48;99481.97;;;20.30;40.42
54306;BME280;66145;45.188;5.712;2023-04-08T10:44:18;99488.94;;;20.45;40.38
54306;BME280;66145;45.188;5.712;2023-04-08T10:46:45;99491.53;;;20.50;40.10
54306;BME280;66145;45.188;5.712;2023-04-08T10:49:11;99491.03;;;20.48;40.24
54306;BME280;66145;45.188;5.712;2023-04-08T10:51:38;99488.75;;;20.41;40.27
54306;BME280;66145;45.188;5.712;2023-04-08T10:54:11;99474.84;;;20.29;40.24
54306;BME280;66145;45.188;5.712;2023-04-08T10:56:44;99481.28;;;20.24;40.33
54306;BME280;66145;45.188;5.712;2023-04-08T10:59:10;99456.53;;;20.06;40.21
54306;BME280;66145;45.188;5.712;2023-04-08T11:01:38;99476.75;;;20.19;40.70
54306;BME280;66145;45.188;5.712;2023-04-08T11:04:17;99444.72;;;19.97;40.87
54306;BME280;66145;45.188;5.712;2023-04-08T11:06:45;99478.06;;;20.22;40.75
54306;BME280;66145;45.188;5.712;2023-04-08T11:09:11;99437.50;;;20.19;40.54
54306;BME280;66145;45.188;5.712;2023-04-08T11:11:37;99409.19;;;20.01;40.62
54306;BME280;66145;45.188;5.712;2023-04-08T11:14:03;99442.84;;;20.24;40.64
54306;BME280;66145;45.188;5.712;2023-04-08T11:16:29;99451.09;;;20.24;40.10
54306;BME280;66145;45.188;5.712;2023-04-08T11:18:55;99458.00;;;20.21;40.46
54306;BME280;66145;45.188;5.712;2023-04-08T11:21:24;99430.34;;;20.09;40.66
54306;BME280;66145;45.188;5.712;2023-04-08T11:23:54;99431.81;;;20.06;40.95
54306;BME280;66145;45.188;5.712;2023-04-08T11:26:20;99456.41;;;20.20;40.66
54306;BME280;66145;45.188;5.712;2023-04-08T11:28:46;99447.31;;;20.11;40.74
54306;BME280;66145;45.188;5.712;2023-04-08T11:31:15;99445.22;;;20.08;40.88
54306;BME280;66145;45.188;5.712;2023-04-08T11:33:47;99432.78;;;20.02;40.96
54306;BME280;66145;45.188;5.712;2023-04-08T11:36:16;99445.91;;;20.23;41.06
54306;BME280;66145;45.188;5.712;2023-04-08T11:38:42;99411.13;;;20.09;41.28
54306;BME280;66145;45.188;5.712;2023-04-08T11:41:08;99439.47;;;20.36;41.17
54306;BME280;66145;45.188;5.712;2023-04-08T11:43:33;99429.94;;;20.42;41.38
54306;BME280;66145;45.188;5.712;2023-04-08T11:46:08;99408.13;;;20.28;41.46
54306;BME280;66145;45.188;5.712;2023-04-08T11:48:34;99423.16;;;20.40;41.68
54306;BME280;66145;45.188;5.712;2023-04-08T11:51:05;99408.13;;;20.28;41.87
54306;BME280;66145;45.188;5.712;2023-04-08T11:53:33;99420.06;;;20.32;41.96
54306;BME280;66145;45.188;5.712;2023-04-08T11:56:17;99428.16;;;20.29;42.10
54306;BME280;66145;45.188;5.712;2023-04-08T11:58:43;99424.09;;;20.17;42.40
54306;BME280;66145;45.188;5.712;2023-04-08T12:01:08;99417.47;;;20.18;42.50
54306;BME280;66145;45.188;5.712;2023-04-08T12:03:34;99407.78;;;20.30;42.08
54306;BME280;66145;45.188;5.712;2023-04-08T12:05:59;99387.25;;;20.18;42.51
54306;BME280;66145;45.188;5.712;2023-04-08T12:08:24;99395.16;;;20.20;42.58
54306;BME280;66145;45.188;5.712;2023-04-08T12:10:50;99408.44;;;20.35;42.25
54306;BME280;66145;45.188;5.712;2023-04-08T12:13:15;99399.41;;;20.35;42.30
54306;BME280;66145;45.188;5.712;2023-04-08T12:15:40;99368.03;;;20.18;41.97
54306;BME280;66145;45.188;5.712;2023-04-08T12:18:06;99358.81;;;20.14;42.47
54306;BME280;66145;45.188;5.712;2023-04-08T12:20:31;99387.59;;;20.26;42.28
54306;BME280;66145;45.188;5.712;2023-04-08T12:22:56;99355.91;;;20.11;42.29
54306;BME280;66145;45.188;5.712;2023-04-08T12:25:22;99373.84;;;20.26;41.90
54306;BME280;66145;45.188;5.712;2023-04-08T12:27:47;99355.06;;;20.01;42.24
54306;BME280;66145;45.188;5.712;2023-04-08T12:30:13;99379.16;;;20.13;42.38
54306;BME280;66145;45.188;5.712;2023-04-08T12:32:38;99356.69;;;20.02;42.42
54306;BME280;66145;45.188;5.712;2023-04-08T12:35:03;99363.34;;;20.19;41.93
54306;BME280;66145;45.188;5.712;2023-04-08T12:37:29;99345.72;;;20.02;41.90
54306;BME280;66145;45.188;5.712;2023-04-08T12:39:54;99384.66;;;20.13;42.20
54306;BME280;66145;45.188;5.712;2023-04-08T12:42:20;99307.03;;;19.72;41.96
54306;BME280;66145;45.188;5.712;2023-04-08T12:44:45;99376.09;;;20.15;41.54
54306;BME280;66145;45.188;5.712;2023-04-08T12:47:11;99362.22;;;20.11;41.58
54306;BME280;66145;45.188;5.712;2023-04-08T12:49:36;99356.41;;;20.04;41.59
54306;BME280;66145;45.188;5.712;2023-04-08T12:52:02;99334.38;;;19.86;41.61
54306;BME280;66145;45.188;5.712;2023-04-08T12:54:27;99360.06;;;19.90;41.73
54306;BME280;66145;45.188;5.712;2023-04-08T12:56:53;99329.31;;;19.71;42.34
54306;BME280;66145;45.188;5.712;2023-04-08T12:59:18;99362.13;;;19.85;42.31
54306;BME280;66145;45.188;5.712;2023-04-08T13:01:43;99349.09;;;19.99;42.14
54306;BME280;66145;45.188;5.712;2023-04-08T13:04:09;99360.44;;;20.06;41.51
54306;BME280;66145;45.188;5.712;2023-04-08T13:06:34;99311.91;;;19.84;42.14
54306;BME280;66145;45.188;5.712;2023-04-08T13:08:59;99351.38;;;20.06;41.94